sensor_id;sensor_type;location;lat;lon;timestamp;P1;durP1;ratioP1;P2;durP2;ratioP2
21550;SDS011;10936;49.836;7.078;2022-10-24T05:01:54;1.60;;;1.20;;
21550;SDS011;10936;49.836;7.078;2022-10-24T05:04:20;2.53;;;1.30;;
21550;SDS011;10936;49.836;7.078;2022-10-24T05:06:46;3.93;;;2.07;;
21550;SDS011;10936;49.836;7.078;2022-10-24T05:09:12;3.53;;;1.47;;
21550;SDS011;10936;49.836;7.078;2022-10-24T05:11:38;1.70;;;1.37;;
21550;SDS011;10936;49.836;7.078;2022-10-24T05:14:03;1.53;;;1.20;;
21550;SDS011;10936;49.836;7.078;2022-10-24T05:16:29;2.93;;;1.40;;
21550;SDS011;10936;49.836;7.078;2022-10-24T05:18:55;2.40;;;1.52;;
21550;SDS011;10936;49.836;7.078;2022-10-24T05:21:20;1.77;;;1.40;;
21550;SDS011;10936;49.836;7.078;2022-10-24T05:23:46;1.53;;;1.27;;
21550;SDS011;10936;49.836;7.078;2022-10-24T05:26:11;2.90;;;1.60;;
21550;SDS011;10936;49.836;7.078;2022-10-24T05:28:37;2.90;;;1.40;;
21550;SDS011;10936;49.836;7.078;2022-10-24T05:31:03;3.85;;;1.30;;
21550;SDS011;10936;49.836;7.078;2022-10-24T05:33:28;2.20;;;1.40;;
21550;SDS011;10936;49.836;7.078;2022-10-24T05:35:54;1.67;;;1.30;;
21550;SDS011;10936;49.836;7.078;2022-10-24T05:38:20;2.33;;;1.60;;
21550;SDS011;10936;49.836;7.078;2022-10-24T05:40:46;1.30;;;1.07;;
21550;SDS011;10936;49.836;7.078;2022-10-24T05:43:13;3.17;;;1.20;;
21550;SDS011;10936;49.836;7.078;2022-10-24T05:45:39;2.17;;;1.20;;
21550;SDS011;10936;49.836;7.078;2022-10-24T05:48:05;2.00;;;1.57;;
21550;SDS011;10936;49.836;7.078;2022-10-24T05:50:31;1.97;;;1.20;;
21550;SDS011;10936;49.836;7.078;2022-10-24T05:52:57;3.57;;;1.50;;
21550;SDS011;10936;49.836;7.078;2022-10-24T05:55:22;2.40;;;1.50;;
21550;SDS011;10936;49.836;7.078;2022-10-24T05:57:48;2.27;;;1.13;;
21550;SDS011;10936;49.836;7.078;2022-10-24T06:00:14;2.00;;;1.30;;
21550;SDS011;10936;49.836;7.078;2022-10-24T06:02:41;3.33;;;1.40;;
21550;SDS011;10936;49.836;7.078;2022-10-24T06:05:07;1.70;;;1.40;;
21550;SDS011;10936;49.836;7.078;2022-10-24T06:07:34;1.77;;;1.30;;
21550;SDS011;10936;49.836;7.078;2022-10-24T06:10:00;2.38;;;1.35;;
21550;SDS011;10936;49.836;7.078;2022-10-24T06:12:27;1.63;;;1.30;;
21550;SDS011;10936;49.836;7.078;2022-10-24T06:14:56;2.58;;;1.55;;
21550;SDS011;10936;49.836;7.078;2022-10-24T06:17:22;2.30;;;1.00;;
21550;SDS011;10936;49.836;7.078;2022-10-24T06:19:47;1.50;;;1.40;;
21550;SDS011;10936;49.836;7.078;2022-10-24T06:22:14;2.20;;;1.50;;
21550;SDS011;10936;49.836;7.078;2022-10-24T06:24:41;2.78;;;1.10;;
21550;SDS011;10936;49.836;7.078;2022-10-24T06:27:06;1.57;;;1.40;;
21550;SDS011;10936;49.836;7.078;2022-10-24T06:29:32;3.07;;;1.40;;
21550;SDS011;10936;49.836;7.078;2022-10-24T06:31:58;2.13;;;1.33;;
21550;SDS011;10936;49.836;7.078;2022-10-24T06:34:24;2.07;;;1.30;;
21550;SDS011;10936;49.836;7.078;2022-10-24T06:36:49;3.03;;;1.50;;
21550;SDS011;10936;49.836;7.078;2022-10-24T06:39:15;3.07;;;1.20;;
21550;SDS011;10936;49.836;7.078;2022-10-24T06:41:41;3.50;;;1.70;;
21550;SDS011;10936;49.836;7.078;2022-10-24T06:44:06;2.97;;;1.67;;
21550;SDS011;10936;49.836;7.078;2022-10-24T06:46:32;3.73;;;1.67;;
21550;SDS011;10936;49.836;7.078;2022-10-24T06:48:58;3.33;;;1.47;;
21550;SDS011;10936;49.836;7.078;2022-10-24T06:51:23;3.50;;;1.47;;
21550;SDS011;10936;49.836;7.078;2022-10-24T06:53:49;3.27;;;1.40;;
21550;SDS011;10936;49.836;7.078;2022-10-24T06:56:15;3.57;;;1.40;;
21550;SDS011;10936;49.836;7.078;2022-10-24T06:58:42;4.60;;;1.33;;
21550;SDS011;10936;49.836;7.078;2022-10-24T07:01:09;2.70;;;1.60;;
21550;SDS011;10936;49.836;7.078;2022-10-24T07:03:36;2.60;;;1.43;;
21550;SDS011;10936;49.836;7.078;2022-10-24T07:06:21;2.20;;;1.47;;
21550;SDS011;10936;49.836;7.078;2022-10-24T07:08:49;2.73;;;1.33;;
21550;SDS011;10936;49.836;7.078;2022-10-24T07:11:19;2.93;;;1.33;;
21550;SDS011;10936;49.836;7.078;2022-10-24T07:13:44;2.00;;;1.50;;
21550;SDS011;10936;49.836;7.078;2022-10-24T07:16:11;3.23;;;1.53;;
21550;SDS011;10936;49.836;7.078;2022-10-24T07:18:36;2.30;;;1.63;;
21550;SDS011;10936;49.836;7.078;2022-10-24T07:21:03;4.13;;;1.57;;
21550;SDS011;10936;49.836;7.078;2022-10-24T07:23:31;2.47;;;1.33;;
21550;SDS011;10936;49.836;7.078;2022-10-24T07:26:05;3.57;;;1.50;;
21550;SDS011;10936;49.836;7.078;2022-10-24T07:28:37;3.07;;;1.50;;
21550;SDS011;10936;49.836;7.078;2022-10-24T07:31:03;1.90;;;1.50;;
21550;SDS011;10936;49.836;7.078;2022-10-24T07:33:30;7.60;;;2.17;;
21550;SDS011;10936;49.836;7.078;2022-10-24T07:35:56;5.90;;;2.50;;
21550;SDS011;10936;49.836;7.078;2022-10-24T07:38:22;12.97;;;2.90;;
21550;SDS011;10936;49.836;7.078;2022-10-24T07:40:48;7.17;;;2.37;;
21550;SDS011;10936;49.836;7.078;2022-10-24T07:43:14;9.30;;;2.90;;
21550;SDS011;10936;49.836;7.078;2022-10-24T07:45:41;7.20;;;2.47;;
21550;SDS011;10936;49.836;7.078;2022-10-24T07:48:08;5.47;;;1.97;;
21550;SDS011;10936;49.836;7.078;2022-10-24T07:50:39;9.00;;;2.47;;
21550;SDS011;10936;49.836;7.078;2022-10-24T07:53:10;8.80;;;2.37;;
21550;SDS011;10936;49.836;7.078;2022-10-24T07:55:36;7.80;;;2.60;;
21550;SDS011;10936;49.836;7.078;2022-10-24T07:58:06;8.07;;;2.47;;
21550;SDS011;10936;49.836;7.078;2022-10-24T08:00:32;7.97;;;2.57;;
21550;SDS011;10936;49.836;7.078;2022-10-24T08:02:58;7.03;;;2.43;;
21550;SDS011;10936;49.836;7.078;2022-10-24T08:05:24;6.67;;;2.60;;
21550;SDS011;10936;49.836;7.078;2022-10-24T08:07:49;12.70;;;2.83;;
21550;SDS011;10936;49.836;7.078;2022-10-24T08:10:15;9.53;;;2.60;;
21550;SDS011;10936;49.836;7.078;2022-10-24T08:12:41;5.90;;;2.20;;
21550;SDS011;10936;49.836;7.078;2022-10-24T08:15:07;15.10;;;2.80;;
21550;SDS011;10936;49.836;7.078;2022-10-24T08:17:34;12.37;;;2.73;;
21550;SDS011;10936;49.836;7.078;2022-10-24T08:20:01;5.93;;;2.30;;
21550;SDS011;10936;49.836;7.078;2022-10-24T08:22:28;6.27;;;2.73;;
21550;SDS011;10936;49.836;7.078;2022-10-24T08:24:54;7.30;;;3.20;;
21550;SDS011;10936;49.836;7.078;2022-10-24T08:27:19;7.40;;;3.00;;
21550;SDS011;10936;49.836;7.078;2022-10-24T08:29:45;7.43;;;2.40;;
21550;SDS011;10936;49.836;7.078;2022-10-24T08:32:11;8.53;;;2.80;;
21550;SDS011;10936;49.836;7.078;2022-10-24T08:34:37;17.40;;;2.73;;
21550;SDS011;10936;49.836;7.078;2022-10-24T08:37:03;7.53;;;2.30;;
21550;SDS011;10936;49.836;7.078;2022-10-24T08:39:29;6.87;;;2.77;;
21550;SDS011;10936;49.836;7.078;2022-10-24T08:42:04;8.43;;;2.20;;
21550;SDS011;10936;49.836;7.078;2022-10-24T08:44:36;8.43;;;2.83;;
21550;SDS011;10936;49.836;7.078;2022-10-24T08:52:23;12.87;;;2.80;;
21550;SDS011;10936;49.836;7.078;2022-10-24T08:54:55;18.80;;;3.50;;
21550;SDS011;10936;49.836;7.078;2022-10-24T08:57:43;11.73;;;2.70;;
21550;SDS011;10936;49.836;7.078;2022-10-24T09:00:17;11.40;;;2.83;;
21550;SDS011;10936;49.836;7.078;2022-10-24T09:02:49;9.73;;;3.03;;
21550;SDS011;10936;49.836;7.078;2022-10-24T09:05:31;8.00;;;3.07;;
21550;SDS011;10936;49.836;7.078;2022-10-24T09:08:04;7.47;;;2.72;;
21550;SDS011;10936;49.836;7.078;2022-10-24T09:10:58;5.20;;;1.70;;
21550;SDS011;10936;49.836;7.078;2022-10-24T09:13:26;7.40;;;2.13;;
21550;SDS011;10936;49.836;7.078;2022-10-24T09:15:53;6.70;;;2.20;;
21550;SDS011;10936;49.836;7.078;2022-10-24T09:21:06;7.07;;;2.93;;
21550;SDS011;10936;49.836;7.078;2022-10-24T09:23:36;8.00;;;2.50;;
21550;SDS011;10936;49.836;7.078;2022-10-24T09:26:02;6.88;;;2.00;;
21550;SDS011;10936;49.836;7.078;2022-10-24T09:28:32;5.43;;;2.03;;
21550;SDS011;10936;49.836;7.078;2022-10-24T09:31:03;4.97;;;2.13;;
21550;SDS011;10936;49.836;7.078;2022-10-24T09:33:40;5.43;;;1.75;;
21550;SDS011;10936;49.836;7.078;2022-10-24T09:36:08;7.35;;;2.45;;
21550;SDS011;10936;49.836;7.078;2022-10-24T09:38:38;9.83;;;2.60;;
21550;SDS011;10936;49.836;7.078;2022-10-24T09:41:07;7.50;;;2.28;;
21550;SDS011;10936;49.836;7.078;2022-10-24T09:43:49;10.60;;;2.33;;
21550;SDS011;10936;49.836;7.078;2022-10-24T09:46:24;5.93;;;2.00;;
21550;SDS011;10936;49.836;7.078;2022-10-24T09:48:57;6.37;;;1.90;;
21550;SDS011;10936;49.836;7.078;2022-10-24T09:51:24;7.93;;;2.50;;
21550;SDS011;10936;49.836;7.078;2022-10-24T09:54:05;5.07;;;2.05;;
21550;SDS011;10936;49.836;7.078;2022-10-24T09:56:44;4.60;;;1.70;;
21550;SDS011;10936;49.836;7.078;2022-10-24T10:02:16;6.70;;;1.88;;
21550;SDS011;10936;49.836;7.078;2022-10-24T10:04:43;11.43;;;2.63;;
21550;SDS011;10936;49.836;7.078;2022-10-24T10:07:10;6.47;;;2.10;;
21550;SDS011;10936;49.836;7.078;2022-10-24T10:09:50;6.55;;;2.47;;
21550;SDS011;10936;49.836;7.078;2022-10-24T10:12:28;7.72;;;1.80;;
21550;SDS011;10936;49.836;7.078;2022-10-24T10:14:59;6.20;;;2.03;;
21550;SDS011;10936;49.836;7.078;2022-10-24T10:17:26;6.35;;;1.98;;
21550;SDS011;10936;49.836;7.078;2022-10-24T10:19:55;5.90;;;2.10;;
21550;SDS011;10936;49.836;7.078;2022-10-24T10:22:25;6.90;;;2.13;;
21550;SDS011;10936;49.836;7.078;2022-10-24T10:24:53;6.73;;;2.30;;
21550;SDS011;10936;49.836;7.078;2022-10-24T10:30:06;8.45;;;2.30;;
21550;SDS011;10936;49.836;7.078;2022-10-24T10:35:24;8.15;;;2.40;;
21550;SDS011;10936;49.836;7.078;2022-10-24T10:40:49;8.85;;;2.15;;
21550;SDS011;10936;49.836;7.078;2022-10-24T10:43:44;7.07;;;2.25;;
21550;SDS011;10936;49.836;7.078;2022-10-24T10:46:32;7.07;;;2.05;;
21550;SDS011;10936;49.836;7.078;2022-10-24T11:03:22;8.67;;;1.90;;
21550;SDS011;10936;49.836;7.078;2022-10-24T11:11:33;4.30;;;1.67;;
21550;SDS011;10936;49.836;7.078;2022-10-24T11:22:28;4.47;;;2.20;;
21550;SDS011;10936;49.836;7.078;2022-10-24T11:25:43;7.57;;;2.10;;
21550;SDS011;10936;49.836;7.078;2022-10-24T11:28:05;12.03;;;2.57;;
21550;SDS011;10936;49.836;7.078;2022-10-24T11:30:55;5.32;;;2.13;;
21550;SDS011;10936;49.836;7.078;2022-10-24T11:33:27;5.40;;;1.92;;
21550;SDS011;10936;49.836;7.078;2022-10-24T11:36:08;9.95;;;2.60;;
21550;SDS011;10936;49.836;7.078;2022-10-24T11:38:50;5.07;;;2.15;;
21550;SDS011;10936;49.836;7.078;2022-10-24T11:41:33;7.20;;;2.33;;
21550;SDS011;10936;49.836;7.078;2022-10-24T11:44:12;4.20;;;1.90;;
21550;SDS011;10936;49.836;7.078;2022-10-24T11:49:44;5.07;;;1.83;;
21550;SDS011;10936;49.836;7.078;2022-10-24T11:52:25;8.60;;;1.80;;
21550;SDS011;10936;49.836;7.078;2022-10-24T11:57:24;4.30;;;2.03;;
21550;SDS011;10936;49.836;7.078;2022-10-24T11:59:53;5.82;;;1.90;;
21550;SDS011;10936;49.836;7.078;2022-10-24T12:18:48;5.80;;;1.92;;
21550;SDS011;10936;49.836;7.078;2022-10-24T12:21:24;3.72;;;1.95;;
21550;SDS011;10936;49.836;7.078;2022-10-24T12:23:57;2.80;;;1.50;;
21550;SDS011;10936;49.836;7.078;2022-10-24T12:26:28;5.05;;;1.98;;
21550;SDS011;10936;49.836;7.078;2022-10-24T12:28:56;6.30;;;1.75;;
21550;SDS011;10936;49.836;7.078;2022-10-24T12:31:34;6.28;;;2.10;;
21550;SDS011;10936;49.836;7.078;2022-10-24T12:39:34;3.78;;;1.65;;
21550;SDS011;10936;49.836;7.078;2022-10-24T12:42:02;3.55;;;1.50;;
21550;SDS011;10936;49.836;7.078;2022-10-24T12:46:56;6.65;;;2.58;;
21550;SDS011;10936;49.836;7.078;2022-10-24T12:49:26;5.28;;;1.92;;
21550;SDS011;10936;49.836;7.078;2022-10-24T12:51:56;5.05;;;1.77;;
21550;SDS011;10936;49.836;7.078;2022-10-24T12:59:51;3.67;;;1.92;;
21550;SDS011;10936;49.836;7.078;2022-10-24T13:05:10;2.95;;;1.52;;
21550;SDS011;10936;49.836;7.078;2022-10-24T13:13:29;5.20;;;1.55;;
21550;SDS011;10936;49.836;7.078;2022-10-24T13:16:22;3.55;;;2.03;;
21550;SDS011;10936;49.836;7.078;2022-10-24T13:19:13;4.35;;;2.28;;
21550;SDS011;10936;49.836;7.078;2022-10-24T13:21:48;4.70;;;1.70;;
21550;SDS011;10936;49.836;7.078;2022-10-24T13:34:42;4.18;;;1.50;;
21550;SDS011;10936;49.836;7.078;2022-10-24T13:37:35;2.58;;;1.50;;
21550;SDS011;10936;49.836;7.078;2022-10-24T13:40:16;4.20;;;1.42;;
21550;SDS011;10936;49.836;7.078;2022-10-24T13:42:53;2.28;;;1.35;;
21550;SDS011;10936;49.836;7.078;2022-10-24T13:48:14;3.42;;;1.40;;
21550;SDS011;10936;49.836;7.078;2022-10-24T13:54:18;3.83;;;1.77;;
21550;SDS011;10936;49.836;7.078;2022-10-24T13:56:44;2.85;;;1.38;;
21550;SDS011;10936;49.836;7.078;2022-10-24T13:59:28;3.30;;;1.30;;
21550;SDS011;10936;49.836;7.078;2022-10-24T14:02:03;3.67;;;1.45;;
21550;SDS011;10936;49.836;7.078;2022-10-24T14:04:32;2.95;;;1.30;;
21550;SDS011;10936;49.836;7.078;2022-10-24T14:07:03;1.85;;;1.33;;
21550;SDS011;10936;49.836;7.078;2022-10-24T14:09:37;5.78;;;1.58;;
21550;SDS011;10936;49.836;7.078;2022-10-24T14:12:05;2.65;;;1.40;;
21550;SDS011;10936;49.836;7.078;2022-10-24T14:14:34;2.85;;;1.40;;
21550;SDS011;10936;49.836;7.078;2022-10-24T14:17:26;2.67;;;1.50;;
21550;SDS011;10936;49.836;7.078;2022-10-24T14:19:58;4.78;;;1.27;;
21550;SDS011;10936;49.836;7.078;2022-10-24T14:22:27;2.85;;;1.20;;
21550;SDS011;10936;49.836;7.078;2022-10-24T14:25:03;4.05;;;1.27;;
21550;SDS011;10936;49.836;7.078;2022-10-24T14:27:30;2.72;;;1.70;;
21550;SDS011;10936;49.836;7.078;2022-10-24T14:29:58;4.28;;;1.35;;
21550;SDS011;10936;49.836;7.078;2022-10-24T14:32:25;2.97;;;1.52;;
21550;SDS011;10936;49.836;7.078;2022-10-24T14:34:53;2.70;;;1.30;;
21550;SDS011;10936;49.836;7.078;2022-10-24T14:37:30;2.88;;;1.52;;
21550;SDS011;10936;49.836;7.078;2022-10-24T14:39:58;3.25;;;1.60;;
21550;SDS011;10936;49.836;7.078;2022-10-24T14:42:25;2.88;;;1.52;;
21550;SDS011;10936;49.836;7.078;2022-10-24T14:44:51;2.53;;;1.60;;
21550;SDS011;10936;49.836;7.078;2022-10-24T14:47:27;2.45;;;1.38;;
21550;SDS011;10936;49.836;7.078;2022-10-24T14:49:56;1.95;;;1.40;;
21550;SDS011;10936;49.836;7.078;2022-10-24T14:52:23;1.98;;;1.50;;
21550;SDS011;10936;49.836;7.078;2022-10-24T14:54:51;4.07;;;1.60;;
21550;SDS011;10936;49.836;7.078;2022-10-24T14:57:20;2.63;;;1.45;;
21550;SDS011;10936;49.836;7.078;2022-10-24T14:59:48;3.97;;;1.73;;
21550;SDS011;10936;49.836;7.078;2022-10-24T15:04:46;3.40;;;1.52;;
21550;SDS011;10936;49.836;7.078;2022-10-24T15:10:00;2.35;;;1.38;;
21550;SDS011;10936;49.836;7.078;2022-10-24T15:12:50;3.03;;;1.40;;
21550;SDS011;10936;49.836;7.078;2022-10-24T15:18:07;3.58;;;1.60;;
21550;SDS011;10936;49.836;7.078;2022-10-24T15:20:40;3.30;;;1.37;;
21550;SDS011;10936;49.836;7.078;2022-10-24T15:23:07;2.80;;;1.40;;
21550;SDS011;10936;49.836;7.078;2022-10-24T15:25:58;2.30;;;1.10;;
21550;SDS011;10936;49.836;7.078;2022-10-24T15:29:21;2.60;;;1.10;;
21550;SDS011;10936;49.836;7.078;2022-10-24T15:31:27;3.23;;;1.30;;
21550;SDS011;10936;49.836;7.078;2022-10-24T15:33:54;2.67;;;1.30;;
21550;SDS011;10936;49.836;7.078;2022-10-24T15:36:27;2.40;;;1.30;;
21550;SDS011;10936;49.836;7.078;2022-10-24T15:38:55;1.77;;;1.10;;
21550;SDS011;10936;49.836;7.078;2022-10-24T15:41:36;2.50;;;1.60;;
21550;SDS011;10936;49.836;7.078;2022-10-24T15:44:12;3.78;;;1.50;;
21550;SDS011;10936;49.836;7.078;2022-10-24T15:46:48;2.55;;;1.30;;
21550;SDS011;10936;49.836;7.078;2022-10-24T15:49:14;3.53;;;1.30;;
21550;SDS011;10936;49.836;7.078;2022-10-24T15:51:41;2.67;;;1.48;;
21550;SDS011;10936;49.836;7.078;2022-10-24T15:54:14;2.53;;;1.05;;
21550;SDS011;10936;49.836;7.078;2022-10-24T15:56:41;3.70;;;1.30;;
21550;SDS011;10936;49.836;7.078;2022-10-24T15:59:07;2.83;;;1.50;;
21550;SDS011;10936;49.836;7.078;2022-10-24T16:01:34;2.57;;;1.30;;
21550;SDS011;10936;49.836;7.078;2022-10-24T16:04:03;2.05;;;1.13;;
21550;SDS011;10936;49.836;7.078;2022-10-24T16:06:31;4.10;;;1.27;;
21550;SDS011;10936;49.836;7.078;2022-10-24T16:08:58;3.80;;;1.50;;
21550;SDS011;10936;49.836;7.078;2022-10-24T16:11:24;2.35;;;1.20;;
21550;SDS011;10936;49.836;7.078;2022-10-24T16:13:50;2.70;;;1.33;;
21550;SDS011;10936;49.836;7.078;2022-10-24T16:16:16;4.13;;;1.63;;
21550;SDS011;10936;49.836;7.078;2022-10-24T16:18:41;2.80;;;1.20;;
21550;SDS011;10936;49.836;7.078;2022-10-24T16:21:09;2.00;;;1.08;;
21550;SDS011;10936;49.836;7.078;2022-10-24T16:23:40;2.47;;;1.33;;
21550;SDS011;10936;49.836;7.078;2022-10-24T16:26:06;2.55;;;1.20;;
21550;SDS011;10936;49.836;7.078;2022-10-24T16:28:31;1.85;;;1.10;;
21550;SDS011;10936;49.836;7.078;2022-10-24T16:30:57;2.17;;;1.10;;
21550;SDS011;10936;49.836;7.078;2022-10-24T16:33:23;3.35;;;1.67;;
21550;SDS011;10936;49.836;7.078;2022-10-24T16:35:48;2.63;;;1.25;;
21550;SDS011;10936;49.836;7.078;2022-10-24T16:38:15;2.42;;;1.20;;
21550;SDS011;10936;49.836;7.078;2022-10-24T16:40:42;2.57;;;1.00;;
21550;SDS011;10936;49.836;7.078;2022-10-24T16:43:10;3.33;;;1.33;;
21550;SDS011;10936;49.836;7.078;2022-10-24T16:45:37;2.27;;;1.30;;
21550;SDS011;10936;49.836;7.078;2022-10-24T16:48:03;1.98;;;1.10;;
21550;SDS011;10936;49.836;7.078;2022-10-24T16:50:29;1.77;;;1.25;;
21550;SDS011;10936;49.836;7.078;2022-10-24T16:52:58;3.22;;;1.20;;
21550;SDS011;10936;49.836;7.078;2022-10-24T16:55:26;2.63;;;1.10;;
21550;SDS011;10936;49.836;7.078;2022-10-24T16:57:52;2.35;;;1.20;;
21550;SDS011;10936;49.836;7.078;2022-10-24T17:00:18;2.30;;;1.20;;
21550;SDS011;10936;49.836;7.078;2022-10-24T17:02:46;1.77;;;1.10;;
21550;SDS011;10936;49.836;7.078;2022-10-24T17:05:15;3.45;;;1.10;;
21550;SDS011;10936;49.836;7.078;2022-10-24T17:07:44;3.60;;;1.30;;
21550;SDS011;10936;49.836;7.078;2022-10-24T17:10:11;4.32;;;1.50;;
21550;SDS011;10936;49.836;7.078;2022-10-24T17:12:37;1.98;;;1.13;;
21550;SDS011;10936;49.836;7.078;2022-10-24T17:15:05;6.20;;;1.40;;
21550;SDS011;10936;49.836;7.078;2022-10-24T17:17:32;1.88;;;1.15;;
21550;SDS011;10936;49.836;7.078;2022-10-24T17:19:58;2.92;;;1.20;;
21550;SDS011;10936;49.836;7.078;2022-10-24T17:22:25;1.95;;;1.20;;
21550;SDS011;10936;49.836;7.078;2022-10-24T17:24:51;2.70;;;1.48;;
21550;SDS011;10936;49.836;7.078;2022-10-24T17:27:16;1.58;;;1.20;;
21550;SDS011;10936;49.836;7.078;2022-10-24T17:29:42;2.88;;;1.38;;
21550;SDS011;10936;49.836;7.078;2022-10-24T17:32:11;1.63;;;1.08;;
21550;SDS011;10936;49.836;7.078;2022-10-24T17:34:38;2.20;;;1.30;;
21550;SDS011;10936;49.836;7.078;2022-10-24T17:37:25;2.10;;;1.20;;
21550;SDS011;10936;49.836;7.078;2022-10-24T17:42:44;2.57;;;1.40;;
21550;SDS011;10936;49.836;7.078;2022-10-24T17:45:14;4.13;;;1.37;;
21550;SDS011;10936;49.836;7.078;2022-10-24T17:47:44;5.45;;;1.33;;
21550;SDS011;10936;49.836;7.078;2022-10-24T17:50:10;3.13;;;1.30;;
21550;SDS011;10936;49.836;7.078;2022-10-24T17:52:37;2.25;;;1.50;;
21550;SDS011;10936;49.836;7.078;2022-10-24T17:55:27;4.15;;;1.40;;
21550;SDS011;10936;49.836;7.078;2022-10-24T17:57:52;3.13;;;1.30;;
21550;SDS011;10936;49.836;7.078;2022-10-24T18:00:18;3.80;;;1.50;;
21550;SDS011;10936;49.836;7.078;2022-10-24T18:02:47;3.63;;;1.40;;
21550;SDS011;10936;49.836;7.078;2022-10-24T18:05:15;3.63;;;1.42;;
21550;SDS011;10936;49.836;7.078;2022-10-24T18:07:42;2.78;;;1.30;;
21550;SDS011;10936;49.836;7.078;2022-10-24T18:10:08;3.55;;;1.30;;
21550;SDS011;10936;49.836;7.078;2022-10-24T18:12:35;3.95;;;1.50;;
21550;SDS011;10936;49.836;7.078;2022-10-24T18:15:03;3.67;;;1.83;;
21550;SDS011;10936;49.836;7.078;2022-10-24T18:17:30;3.10;;;1.40;;
21550;SDS011;10936;49.836;7.078;2022-10-24T18:19:56;3.95;;;1.67;;
21550;SDS011;10936;49.836;7.078;2022-10-24T18:22:22;3.78;;;1.67;;
21550;SDS011;10936;49.836;7.078;2022-10-24T18:24:48;2.57;;;1.20;;
21550;SDS011;10936;49.836;7.078;2022-10-24T18:27:13;3.45;;;1.50;;
21550;SDS011;10936;49.836;7.078;2022-10-24T18:29:39;4.27;;;1.30;;
21550;SDS011;10936;49.836;7.078;2022-10-24T18:32:05;3.53;;;1.58;;
21550;SDS011;10936;49.836;7.078;2022-10-24T18:34:30;4.38;;;1.27;;
21550;SDS011;10936;49.836;7.078;2022-10-24T18:36:56;3.15;;;1.50;;
21550;SDS011;10936;49.836;7.078;2022-10-24T18:39:22;3.20;;;1.60;;
21550;SDS011;10936;49.836;7.078;2022-10-24T18:41:48;2.13;;;1.20;;
21550;SDS011;10936;49.836;7.078;2022-10-24T18:44:34;3.17;;;1.40;;
21550;SDS011;10936;49.836;7.078;2022-10-24T18:47:02;4.13;;;1.58;;
21550;SDS011;10936;49.836;7.078;2022-10-24T18:49:31;2.83;;;1.47;;
21550;SDS011;10936;49.836;7.078;2022-10-24T18:54:45;2.72;;;1.27;;
21550;SDS011;10936;49.836;7.078;2022-10-24T18:57:21;2.77;;;1.37;;
21550;SDS011;10936;49.836;7.078;2022-10-24T18:59:49;2.05;;;1.20;;
21550;SDS011;10936;49.836;7.078;2022-10-24T19:02:35;2.80;;;1.30;;
21550;SDS011;10936;49.836;7.078;2022-10-24T19:07:39;3.08;;;1.55;;
21550;SDS011;10936;49.836;7.078;2022-10-24T19:10:06;2.42;;;1.17;;
21550;SDS011;10936;49.836;7.078;2022-10-24T19:12:37;2.10;;;1.38;;
21550;SDS011;10936;49.836;7.078;2022-10-24T19:15:03;2.33;;;1.33;;
21550;SDS011;10936;49.836;7.078;2022-10-24T19:17:29;3.00;;;1.40;;
21550;SDS011;10936;49.836;7.078;2022-10-24T19:19:55;4.25;;;1.80;;
21550;SDS011;10936;49.836;7.078;2022-10-24T19:22:22;4.80;;;1.30;;
21550;SDS011;10936;49.836;7.078;2022-10-24T19:24:48;2.60;;;1.30;;
21550;SDS011;10936;49.836;7.078;2022-10-24T19:27:14;2.47;;;1.20;;
21550;SDS011;10936;49.836;7.078;2022-10-24T19:29:39;3.97;;;1.40;;
21550;SDS011;10936;49.836;7.078;2022-10-24T19:32:05;4.40;;;1.30;;
21550;SDS011;10936;49.836;7.078;2022-10-24T19:34:31;3.70;;;1.20;;
21550;SDS011;10936;49.836;7.078;2022-10-24T19:36:57;2.63;;;1.20;;
21550;SDS011;10936;49.836;7.078;2022-10-24T19:39:23;2.95;;;1.38;;
21550;SDS011;10936;49.836;7.078;2022-10-24T19:41:49;4.38;;;1.65;;
21550;SDS011;10936;49.836;7.078;2022-10-24T19:44:15;4.10;;;1.40;;
21550;SDS011;10936;49.836;7.078;2022-10-24T19:46:40;1.95;;;1.05;;
21550;SDS011;10936;49.836;7.078;2022-10-24T19:49:06;2.20;;;1.13;;
21550;SDS011;10936;49.836;7.078;2022-10-24T19:51:32;2.25;;;1.30;;
21550;SDS011;10936;49.836;7.078;2022-10-24T19:53:57;2.72;;;1.17;;
21550;SDS011;10936;49.836;7.078;2022-10-24T19:56:23;2.83;;;1.50;;
21550;SDS011;10936;49.836;7.078;2022-10-24T19:58:51;2.55;;;1.27;;
21550;SDS011;10936;49.836;7.078;2022-10-24T20:01:19;3.60;;;1.30;;
21550;SDS011;10936;49.836;7.078;2022-10-24T20:03:47;4.13;;;1.27;;
21550;SDS011;10936;49.836;7.078;2022-10-24T20:06:13;3.20;;;1.40;;
21550;SDS011;10936;49.836;7.078;2022-10-24T20:08:39;2.50;;;1.40;;
21550;SDS011;10936;49.836;7.078;2022-10-24T20:11:05;2.60;;;1.27;;
21550;SDS011;10936;49.836;7.078;2022-10-24T20:13:32;2.85;;;1.20;;
21550;SDS011;10936;49.836;7.078;2022-10-24T20:15:59;2.57;;;1.20;;
21550;SDS011;10936;49.836;7.078;2022-10-24T20:18:29;2.45;;;1.30;;
21550;SDS011;10936;49.836;7.078;2022-10-24T20:20:56;2.45;;;1.48;;
21550;SDS011;10936;49.836;7.078;2022-10-24T20:23:22;4.32;;;1.25;;
21550;SDS011;10936;49.836;7.078;2022-10-24T20:25:49;1.90;;;1.17;;
21550;SDS011;10936;49.836;7.078;2022-10-24T20:28:26;3.95;;;1.17;;
21550;SDS011;10936;49.836;7.078;2022-10-24T20:30:52;3.00;;;1.40;;
21550;SDS011;10936;49.836;7.078;2022-10-24T20:33:18;2.70;;;1.40;;
21550;SDS011;10936;49.836;7.078;2022-10-24T20:35:44;2.58;;;1.35;;
21550;SDS011;10936;49.836;7.078;2022-10-24T20:38:09;3.28;;;1.30;;
21550;SDS011;10936;49.836;7.078;2022-10-24T20:40:35;2.28;;;1.20;;
21550;SDS011;10936;49.836;7.078;2022-10-24T20:43:01;2.55;;;1.33;;
21550;SDS011;10936;49.836;7.078;2022-10-24T20:45:29;2.17;;;1.10;;
21550;SDS011;10936;49.836;7.078;2022-10-24T20:47:58;4.28;;;1.30;;
21550;SDS011;10936;49.836;7.078;2022-10-24T20:50:24;2.47;;;1.23;;
21550;SDS011;10936;49.836;7.078;2022-10-24T20:52:50;1.52;;;0.80;;
21550;SDS011;10936;49.836;7.078;2022-10-24T20:55:16;2.75;;;1.20;;
21550;SDS011;10936;49.836;7.078;2022-10-24T20:57:42;2.85;;;1.10;;
21550;SDS011;10936;49.836;7.078;2022-10-24T21:00:07;1.35;;;1.05;;
21550;SDS011;10936;49.836;7.078;2022-10-24T21:02:34;3.45;;;1.20;;
21550;SDS011;10936;49.836;7.078;2022-10-24T21:05:01;3.38;;;1.30;;
21550;SDS011;10936;49.836;7.078;2022-10-24T21:07:28;3.00;;;1.33;;
21550;SDS011;10936;49.836;7.078;2022-10-24T21:09:54;1.38;;;0.95;;
21550;SDS011;10936;49.836;7.078;2022-10-24T21:12:20;2.10;;;1.20;;
21550;SDS011;10936;49.836;7.078;2022-10-24T21:14:45;3.78;;;1.33;;
21550;SDS011;10936;49.836;7.078;2022-10-24T21:17:11;2.58;;;1.30;;
21550;SDS011;10936;49.836;7.078;2022-10-24T21:19:37;1.80;;;0.90;;
21550;SDS011;10936;49.836;7.078;2022-10-24T21:22:02;3.05;;;1.25;;
21550;SDS011;10936;49.836;7.078;2022-10-24T21:24:28;2.40;;;1.13;;
21550;SDS011;10936;49.836;7.078;2022-10-24T21:26:53;2.03;;;1.15;;
21550;SDS011;10936;49.836;7.078;2022-10-24T21:29:19;3.00;;;1.30;;
